createdAt,value
2022-11-05T00:02:01.473Z,5.90
2022-11-05T00:04:47.809Z,4.63
2022-11-05T00:07:36.823Z,4.67
2022-11-05T00:10:07.672Z,8.67
2022-11-05T00:12:54.093Z,9.40
2022-11-05T00:15:40.292Z,5.90
2022-11-05T00:18:09.195Z,5.27
2022-11-05T00:20:37.832Z,5.53
2022-11-05T00:23:26.241Z,5.37
2022-11-05T00:25:56.535Z,4.73
2022-11-05T00:28:27.125Z,4.53
2022-11-05T00:31:01.563Z,3.97
2022-11-05T00:33:30.269Z,4.80
2022-11-05T00:35:59.030Z,4.70
2022-11-05T00:38:30.521Z,5.20
2022-11-05T00:40:59.536Z,3.73
2022-11-05T00:43:46.129Z,4.10
2022-11-05T00:46:16.049Z,4.53
2022-11-05T00:49:02.132Z,3.40
2022-11-05T00:51:30.767Z,4.10
2022-11-05T00:54:00.775Z,4.03
2022-11-05T00:56:29.391Z,4.40
2022-11-05T00:58:58.695Z,3.80
2022-11-05T01:01:27.542Z,3.77
2022-11-05T01:03:56.242Z,3.37
2022-11-05T01:06:25.151Z,3.70
2022-11-05T01:08:53.910Z,2.90
2022-11-05T01:11:34.039Z,2.93
2022-11-05T01:14:04.015Z,2.50
2022-11-05T01:16:33.008Z,2.80
2022-11-05T01:19:02.411Z,2.30
2022-11-05T01:21:31.067Z,2.23
2022-11-05T01:23:59.679Z,2.57
2022-11-05T01:26:30.298Z,2.70
2022-11-05T01:29:00.859Z,2.63
2022-11-05T01:31:29.590Z,4.30
2022-11-05T01:33:58.259Z,3.03
2022-11-05T01:36:26.956Z,3.10
2022-11-05T01:38:55.655Z,3.70
2022-11-05T01:41:24.285Z,2.90
2022-11-05T01:43:56.435Z,2.43
2022-11-05T01:46:28.234Z,2.97
2022-11-05T01:49:02.876Z,2.80
2022-11-05T01:51:32.226Z,2.70
2022-11-05T01:54:03.584Z,2.63
2022-11-05T01:56:36.110Z,2.60
2022-11-05T01:59:08.146Z,2.63
2022-11-05T02:01:37.154Z,3.17
2022-11-05T02:04:08.435Z,2.00
2022-11-05T02:06:39.123Z,1.67
2022-11-05T02:09:09.585Z,2.00
2022-11-05T02:11:38.532Z,2.00
2022-11-05T02:14:08.541Z,2.33
2022-11-05T02:16:41.062Z,1.50
2022-11-05T02:19:46.393Z,1.30
2022-11-05T02:22:59.332Z,1.87
2022-11-05T02:25:56.443Z,1.10
2022-11-05T02:28:40.923Z,1.20
2022-11-05T02:34:10.560Z,1.63
2022-11-05T02:36:45.895Z,1.40
2022-11-05T02:39:26.133Z,1.00
2022-11-05T02:42:08.399Z,1.40
2022-11-05T02:44:42.758Z,1.80
2022-11-05T02:47:18.412Z,2.10
2022-11-05T02:49:54.364Z,1.90
2022-11-05T02:52:26.716Z,2.03
2022-11-05T02:54:59.812Z,1.70
2022-11-05T02:57:29.953Z,1.87
2022-11-05T03:00:02.145Z,1.70
2022-11-05T03:02:30.870Z,1.60
2022-11-05T03:05:01.283Z,2.20
2022-11-05T03:07:35.818Z,2.50
2022-11-05T03:10:34.547Z,2.03
2022-11-05T03:13:10.429Z,1.80
2022-11-05T03:15:49.543Z,1.70
2022-11-05T03:18:23.726Z,2.30
2022-11-05T03:20:59.739Z,2.03
2022-11-05T03:23:30.896Z,1.50
2022-11-05T03:26:05.195Z,1.60
2022-11-05T03:28:37.115Z,1.50
2022-11-05T03:31:07.137Z,1.77
2022-11-05T03:33:37.541Z,1.67
2022-11-05T03:36:13.862Z,1.90
2022-11-05T03:38:44.715Z,1.67
2022-11-05T03:41:13.600Z,2.23
2022-11-05T03:43:46.518Z,1.70
2022-11-05T03:46:19.272Z,1.57
2022-11-05T03:48:52.782Z,1.97
2022-11-05T03:51:28.533Z,2.13
2022-11-05T03:53:59.060Z,1.80
2022-11-05T03:56:30.386Z,2.10
2022-11-05T03:59:00.696Z,1.60
2022-11-05T04:01:29.662Z,1.97
2022-11-05T04:03:58.355Z,2.07
2022-11-05T04:06:45.667Z,2.03
2022-11-05T04:09:31.691Z,2.10
2022-11-05T04:12:17.667Z,1.83
2022-11-05T04:14:46.252Z,2.00
2022-11-05T04:17:14.120Z,2.30
2022-11-05T04:20:01.324Z,1.83
2022-11-05T04:22:50.494Z,2.53
2022-11-05T04:25:20.327Z,21.37
2022-11-05T04:27:48.979Z,15.30
2022-11-05T04:30:21.877Z,6.43
2022-11-05T04:33:01.919Z,3.73
2022-11-05T04:35:31.970Z,2.50
2022-11-05T04:38:02.786Z,2.37
2022-11-05T04:40:31.397Z,2.40
2022-11-05T04:43:00.001Z,2.20
2022-11-05T04:45:29.927Z,2.10
2022-11-05T04:47:58.594Z,2.07
2022-11-05T04:50:27.300Z,2.10
2022-11-05T04:52:56.007Z,1.63
2022-11-05T04:55:26.322Z,1.80
2022-11-05T04:57:55.492Z,1.50
2022-11-05T05:00:24.893Z,1.40
2022-11-05T05:02:53.553Z,1.60
2022-11-05T05:05:22.996Z,1.70
2022-11-05T05:07:51.585Z,1.40
2022-11-05T05:10:20.409Z,1.80
2022-11-05T05:12:50.333Z,1.70
2022-11-05T05:15:19.062Z,1.30
2022-11-05T05:17:51.295Z,1.30
2022-11-05T05:20:37.862Z,1.80
2022-11-05T05:23:06.461Z,1.80
2022-11-05T05:25:35.042Z,1.87
2022-11-05T05:28:05.047Z,1.80
2022-11-05T05:30:33.598Z,1.23
2022-11-05T05:33:03.476Z,1.63
2022-11-05T05:35:32.065Z,1.40
2022-11-05T05:38:00.673Z,1.50
2022-11-05T05:40:29.267Z,1.80
2022-11-05T05:42:57.852Z,1.40
2022-11-05T05:45:27.980Z,1.40
2022-11-05T05:47:56.902Z,1.53
2022-11-05T05:50:25.479Z,1.17
2022-11-05T05:52:54.321Z,1.40
2022-11-05T05:55:22.991Z,1.27
2022-11-05T05:57:51.575Z,1.23
2022-11-05T06:00:20.248Z,1.40
2022-11-05T06:02:50.257Z,1.57
2022-11-05T06:05:18.947Z,1.43
2022-11-05T06:07:47.534Z,1.80
2022-11-05T06:10:16.240Z,1.33
2022-11-05T06:12:44.829Z,1.27
2022-11-05T06:15:13.402Z,1.50
2022-11-05T06:17:44.051Z,1.50
2022-11-05T06:20:14.327Z,1.70
2022-11-05T06:22:42.906Z,1.90
2022-11-05T06:25:11.670Z,1.73
2022-11-05T06:27:40.267Z,2.27
2022-11-05T06:30:10.241Z,3.20
2022-11-05T06:32:38.823Z,3.43
2022-11-05T06:35:07.725Z,3.37
2022-11-05T06:37:37.640Z,4.20
2022-11-05T06:40:08.165Z,4.30
2022-11-05T06:42:36.772Z,4.70
2022-11-05T06:45:06.192Z,5.00
2022-11-05T06:47:34.772Z,4.77
2022-11-05T06:50:03.371Z,5.13
2022-11-05T06:52:34.787Z,5.40
2022-11-05T06:55:07.516Z,6.60
2022-11-05T06:57:38.585Z,6.70
2022-11-05T07:00:08.995Z,8.17
2022-11-05T07:02:37.567Z,9.43
2022-11-05T07:05:07.261Z,8.90
2022-11-05T07:07:35.847Z,11.27
2022-11-05T07:10:05.624Z,11.33
2022-11-05T07:12:35.596Z,12.13
2022-11-05T07:15:04.594Z,13.37
2022-11-05T07:17:33.231Z,12.90
2022-11-05T07:20:01.841Z,12.93
2022-11-05T07:22:30.428Z,13.87
2022-11-05T07:24:59.027Z,12.87
2022-11-05T07:27:27.712Z,13.70
2022-11-05T07:29:57.731Z,14.83
2022-11-05T07:32:26.329Z,13.80
2022-11-05T07:34:54.932Z,14.27
2022-11-05T07:37:23.539Z,12.93
2022-11-05T07:39:52.128Z,14.30
2022-11-05T07:42:21.344Z,15.20
2022-11-05T07:44:49.984Z,13.63
2022-11-05T07:47:19.905Z,14.50
2022-11-05T07:49:48.455Z,15.17
2022-11-05T07:52:17.052Z,14.60
2022-11-05T07:54:45.627Z,14.43
2022-11-05T07:57:14.362Z,13.23
2022-11-05T07:59:42.927Z,13.20
2022-11-05T08:02:12.766Z,13.17
2022-11-05T08:04:43.468Z,13.47
2022-11-05T08:07:12.107Z,14.80
2022-11-05T08:09:40.700Z,13.23
2022-11-05T08:12:09.844Z,12.63
2022-11-05T08:14:38.530Z,13.67
2022-11-05T08:17:07.239Z,12.70
2022-11-05T08:19:35.763Z,13.77
2022-11-05T08:22:05.751Z,12.40
2022-11-05T08:24:34.313Z,13.00
2022-11-05T08:27:02.863Z,12.60
2022-11-05T08:29:31.455Z,13.47
2022-11-05T08:32:00.054Z,15.07
2022-11-05T08:34:28.757Z,15.47
2022-11-05T08:36:57.639Z,14.50
2022-11-05T08:39:27.627Z,13.43
2022-11-05T08:41:56.178Z,13.67
2022-11-05T08:44:24.997Z,11.03
2022-11-05T08:46:54.320Z,10.73
2022-11-05T08:49:22.935Z,10.20
2022-11-05T08:51:51.645Z,8.20
2022-11-05T08:54:20.213Z,7.90
2022-11-05T08:56:50.206Z,7.50
2022-11-05T08:59:18.921Z,6.07
2022-11-05T09:01:47.681Z,5.10
2022-11-05T09:04:16.395Z,4.60
2022-11-05T09:06:45.001Z,4.10
2022-11-05T09:09:13.632Z,4.27
2022-11-05T09:12:09.903Z,3.63
2022-11-05T09:14:32.468Z,4.47
2022-11-05T09:17:01.039Z,4.40
2022-11-05T09:19:29.664Z,3.70
2022-11-05T09:21:59.348Z,3.97
2022-11-05T09:24:27.955Z,3.73
2022-11-05T09:26:56.502Z,3.50
2022-11-05T09:29:25.102Z,3.57
2022-11-05T09:31:55.058Z,3.70
2022-11-05T09:34:24.002Z,3.23
2022-11-05T09:36:52.552Z,4.00
2022-11-05T09:39:21.170Z,3.57
2022-11-05T09:41:50.414Z,3.73
2022-11-05T09:44:22.582Z,3.70
2022-11-05T09:46:54.153Z,3.90
2022-11-05T09:49:28.738Z,4.00
2022-11-05T09:51:58.811Z,4.30
2022-11-05T09:54:31.497Z,4.50
2022-11-05T09:57:01.248Z,4.40
2022-11-05T09:59:31.817Z,4.80
2022-11-05T10:02:04.491Z,4.90
2022-11-05T10:04:35.531Z,5.13
2022-11-05T10:07:05.628Z,5.70
2022-11-05T10:09:37.987Z,5.70
2022-11-05T10:12:12.035Z,5.50
2022-11-05T10:14:44.297Z,6.00
2022-11-05T10:17:17.057Z,6.87
2022-11-05T10:19:51.198Z,6.90
2022-11-05T10:22:20.340Z,6.93
2022-11-05T10:24:50.326Z,8.00
2022-11-05T10:27:23.253Z,7.57
2022-11-05T10:29:52.058Z,8.30
2022-11-05T10:32:28.869Z,7.70
2022-11-05T10:35:01.079Z,8.40
2022-11-05T10:37:29.965Z,9.30
2022-11-05T10:39:58.838Z,9.37
2022-11-05T10:42:40.435Z,9.03
2022-11-05T10:45:19.096Z,9.10
2022-11-05T10:47:54.424Z,8.37
2022-11-05T10:50:25.801Z,8.70
2022-11-05T10:52:58.486Z,8.60
2022-11-05T10:55:29.343Z,8.70
2022-11-05T10:58:11.445Z,8.73
2022-11-05T11:00:40.859Z,8.73
2022-11-05T11:03:33.436Z,8.57
2022-11-05T11:06:04.961Z,8.07
2022-11-05T11:08:35.303Z,8.93
2022-11-05T11:11:05.799Z,9.20
2022-11-05T11:13:50.846Z,8.03
2022-11-05T11:16:22.036Z,7.70
2022-11-05T11:18:54.652Z,7.87
2022-11-05T11:21:24.834Z,8.57
2022-11-05T11:23:58.052Z,8.47
2022-11-05T11:26:29.223Z,8.50
2022-11-05T11:29:00.639Z,7.77
2022-11-05T11:31:31.268Z,9.23
2022-11-05T11:34:02.544Z,7.47
2022-11-05T11:36:41.270Z,7.40
2022-11-05T11:39:17.520Z,7.67
2022-11-05T11:41:46.634Z,6.10
2022-11-05T11:44:18.091Z,5.70
2022-11-05T11:46:50.011Z,7.30
2022-11-05T11:49:32.424Z,6.83
2022-11-05T11:52:05.614Z,5.33
2022-11-05T11:54:35.422Z,4.67
2022-11-05T11:57:04.358Z,6.93
2022-11-05T12:00:06.749Z,6.70
2022-11-05T12:02:41.682Z,6.00
2022-11-05T12:05:24.433Z,5.60
2022-11-05T12:07:55.619Z,6.00
2022-11-05T12:10:40.964Z,5.53
2022-11-05T12:13:44.847Z,6.93
2022-11-05T12:16:20.015Z,5.90
2022-11-05T12:18:54.391Z,7.20
2022-11-05T12:21:51.601Z,5.47
2022-11-05T12:24:51.657Z,6.00
2022-11-05T12:27:29.538Z,6.50
2022-11-05T12:30:01.017Z,6.97
2022-11-05T12:32:56.030Z,6.10
2022-11-05T12:35:44.197Z,6.33
2022-11-05T12:38:23.898Z,6.37
2022-11-05T12:41:02.244Z,5.70
2022-11-05T12:43:42.806Z,6.07
2022-11-05T12:46:22.312Z,5.43
2022-11-05T12:49:07.618Z,5.90
2022-11-05T12:51:49.371Z,4.77
2022-11-05T12:54:25.751Z,5.50
2022-11-05T12:56:59.075Z,5.10
2022-11-05T12:59:33.455Z,5.90
2022-11-05T13:02:08.406Z,5.97
2022-11-05T13:04:44.996Z,5.60
2022-11-05T13:07:17.647Z,5.03
2022-11-05T13:09:48.438Z,4.40
2022-11-05T13:12:21.960Z,4.73
2022-11-05T13:14:55.494Z,5.97
2022-11-05T13:17:27.686Z,5.60
2022-11-05T13:20:00.800Z,5.93
2022-11-05T13:22:34.634Z,6.10
2022-11-05T13:25:06.703Z,5.70
2022-11-05T13:27:49.018Z,4.30
2022-11-05T13:30:19.607Z,5.80
2022-11-05T13:32:50.496Z,6.27
2022-11-05T13:35:24.056Z,4.97
2022-11-05T13:38:13.084Z,4.80
2022-11-05T13:41:05.291Z,6.10
2022-11-05T13:43:59.721Z,5.80
2022-11-05T13:46:46.435Z,5.40
2022-11-05T13:49:32.844Z,5.30
2022-11-05T13:52:13.013Z,6.00
2022-11-05T13:55:16.493Z,5.60
2022-11-05T13:58:02.313Z,6.10
2022-11-05T14:00:33.976Z,5.67
2022-11-05T14:03:04.796Z,6.00
2022-11-05T14:05:35.537Z,5.50
2022-11-05T14:08:11.557Z,5.17
2022-11-05T14:10:42.167Z,6.00
2022-11-05T14:13:23.102Z,5.70
2022-11-05T14:16:04.095Z,5.83
2022-11-05T14:18:39.283Z,5.90
2022-11-05T14:21:47.174Z,5.30
2022-11-05T14:24:28.630Z,5.57
2022-11-05T14:27:41.683Z,5.40
2022-11-05T14:30:44.805Z,6.30
2022-11-05T14:36:36.484Z,6.13
2022-11-05T14:39:29.260Z,5.17
2022-11-05T14:42:01.790Z,6.13
2022-11-05T14:44:31.506Z,5.70
2022-11-05T14:47:01.957Z,5.37
2022-11-05T14:49:33.462Z,5.60
2022-11-05T14:52:08.008Z,4.87
2022-11-05T14:54:41.225Z,4.50
2022-11-05T14:57:13.063Z,5.10
2022-11-05T15:00:00.752Z,5.13
2022-11-05T15:02:36.069Z,5.07
2022-11-05T15:05:40.082Z,5.57
2022-11-05T15:08:33.003Z,4.77
2022-11-05T15:11:12.551Z,5.90
2022-11-05T15:13:49.562Z,5.60
2022-11-05T15:16:21.867Z,5.10
2022-11-05T15:18:51.162Z,5.93
2022-11-05T15:21:21.001Z,5.17
2022-11-05T15:23:53.114Z,5.70
2022-11-05T15:26:26.101Z,5.50
2022-11-05T15:28:55.747Z,5.50
2022-11-05T15:31:30.016Z,5.73
2022-11-05T15:34:18.107Z,6.20
2022-11-05T15:36:55.466Z,5.37
2022-11-05T15:39:30.310Z,5.83
2022-11-05T15:42:00.309Z,5.90
2022-11-05T15:44:30.710Z,5.67
2022-11-05T15:47:07.737Z,6.60
2022-11-05T15:49:36.379Z,5.80
2022-11-05T15:52:05.512Z,5.30
2022-11-05T15:54:36.039Z,6.30
2022-11-05T15:57:05.040Z,5.70
2022-11-05T15:59:35.029Z,5.60
2022-11-05T16:02:07.178Z,6.30
2022-11-05T16:04:36.152Z,6.27
2022-11-05T16:07:09.216Z,6.20
2022-11-05T16:09:43.562Z,5.80
2022-11-05T16:12:30.767Z,6.03
2022-11-05T16:15:01.091Z,5.77
2022-11-05T16:17:33.360Z,6.23
2022-11-05T16:20:02.032Z,5.97
2022-11-05T16:22:45.918Z,6.20
2022-11-05T16:25:47.157Z,5.90
2022-11-05T16:28:23.114Z,7.40
2022-11-05T16:30:56.285Z,5.13
2022-11-05T16:33:25.884Z,6.82
2022-11-05T16:35:54.906Z,5.67
2022-11-05T16:38:24.023Z,6.13
2022-11-05T16:40:53.962Z,6.60
2022-11-05T16:43:24.482Z,5.73
2022-11-05T16:45:54.430Z,6.80
2022-11-05T16:48:23.196Z,5.47
2022-11-05T16:50:51.861Z,6.13
2022-11-05T16:53:20.746Z,5.67
2022-11-05T16:55:49.445Z,5.57
2022-11-05T16:58:21.525Z,5.87
2022-11-05T17:00:51.950Z,9.60
2022-11-05T17:03:20.715Z,8.00
2022-11-05T17:05:49.500Z,9.07
2022-11-05T17:08:18.091Z,6.23
2022-11-05T17:10:46.710Z,5.50
2022-11-05T17:13:15.999Z,5.10
2022-11-05T17:15:47.262Z,5.30
2022-11-05T17:18:18.800Z,5.13
2022-11-05T17:20:49.007Z,5.63
2022-11-05T17:23:19.541Z,5.27
2022-11-05T17:25:49.833Z,5.30
2022-11-05T17:28:18.944Z,5.17
2022-11-05T17:30:52.911Z,5.53
2022-11-05T17:33:23.037Z,6.87
2022-11-05T17:35:52.610Z,7.17
2022-11-05T17:38:23.132Z,7.97
2022-11-05T17:40:51.925Z,11.47
2022-11-05T17:43:21.062Z,12.70
2022-11-05T17:45:52.776Z,10.03
2022-11-05T17:48:22.059Z,10.73
2022-11-05T17:50:51.588Z,9.90
2022-11-05T17:53:20.552Z,10.53
2022-11-05T17:55:49.301Z,18.53
2022-11-05T17:58:18.209Z,26.27
2022-11-05T18:00:47.855Z,18.63
2022-11-05T18:03:17.908Z,15.10
2022-11-05T18:05:46.518Z,13.60
2022-11-05T18:08:15.108Z,13.57
2022-11-05T18:10:43.834Z,12.50
2022-11-05T18:13:12.943Z,9.40
2022-11-05T18:15:41.956Z,8.37
2022-11-05T18:18:10.634Z,6.83
2022-11-05T18:20:40.595Z,8.17
2022-11-05T18:23:09.429Z,8.33
2022-11-05T18:25:38.172Z,7.83
2022-11-05T18:28:07.033Z,9.97
2022-11-05T18:30:35.746Z,11.80
2022-11-05T18:33:04.558Z,9.53
2022-11-05T18:35:33.126Z,10.27
2022-11-05T18:38:03.051Z,8.47
2022-11-05T18:40:31.678Z,7.10
2022-11-05T18:43:00.280Z,9.60
2022-11-05T18:45:30.041Z,9.30
2022-11-05T18:48:00.350Z,15.70
2022-11-05T18:50:29.730Z,16.27
2022-11-05T18:52:58.784Z,14.30
2022-11-05T18:55:28.803Z,15.57
2022-11-05T18:57:57.384Z,13.77
2022-11-05T19:00:26.014Z,14.07
2022-11-05T19:02:55.186Z,14.60
2022-11-05T19:05:31.140Z,15.80
2022-11-05T19:08:00.000Z,13.00
2022-11-05T19:10:30.041Z,14.07
2022-11-05T19:12:58.630Z,13.90
2022-11-05T19:15:27.301Z,13.27
2022-11-05T19:17:55.926Z,13.20
2022-11-05T19:20:24.583Z,16.07
2022-11-05T19:22:53.187Z,14.63
2022-11-05T19:25:21.781Z,13.37
2022-11-05T19:27:51.794Z,14.33
2022-11-05T19:30:20.449Z,14.60
2022-11-05T19:32:49.095Z,13.17
2022-11-05T19:35:18.474Z,13.27
2022-11-05T19:37:47.093Z,12.70
2022-11-05T19:40:15.705Z,13.60
2022-11-05T19:42:44.282Z,14.10
2022-11-05T19:45:42.955Z,11.97
2022-11-05T19:48:03.096Z,11.53
2022-11-05T19:50:32.042Z,11.40
2022-11-05T19:53:01.120Z,10.57
2022-11-05T19:55:29.736Z,10.90
2022-11-05T19:57:58.320Z,10.77
2022-11-05T20:00:28.339Z,11.63
2022-11-05T20:02:57.048Z,9.87
2022-11-05T20:05:25.756Z,10.70
2022-11-05T20:07:54.366Z,11.00
2022-11-05T20:10:23.134Z,10.77
2022-11-05T20:12:51.874Z,10.97
2022-11-05T20:15:20.534Z,11.07
2022-11-05T20:17:51.610Z,11.03
2022-11-05T20:20:20.597Z,11.07
2022-11-05T20:22:49.184Z,10.93
2022-11-05T20:25:17.906Z,11.90
2022-11-05T20:27:46.634Z,11.13
2022-11-05T20:30:15.270Z,11.87
2022-11-05T20:32:43.859Z,10.87
2022-11-05T20:35:13.789Z,11.00
2022-11-05T20:37:42.444Z,11.90
2022-11-05T20:40:13.942Z,11.80
2022-11-05T20:42:43.015Z,11.10
2022-11-05T20:45:12.213Z,10.83
2022-11-05T20:47:40.787Z,9.93
2022-11-05T20:50:10.608Z,11.03
2022-11-05T20:52:40.711Z,10.97
2022-11-05T20:55:10.027Z,12.30
2022-11-05T20:57:38.813Z,11.30
2022-11-05T21:00:08.825Z,12.10
2022-11-05T21:02:39.527Z,13.07
2022-11-05T21:05:08.910Z,11.77
2022-11-05T21:07:37.704Z,12.00
2022-11-05T21:10:08.205Z,12.00
2022-11-05T21:12:36.794Z,11.47
2022-11-05T21:15:06.244Z,14.60
2022-11-05T21:17:34.856Z,11.70
2022-11-05T21:20:03.513Z,13.00
2022-11-05T21:22:32.190Z,12.63
2022-11-05T21:25:00.766Z,12.40
2022-11-05T21:27:30.741Z,12.17
2022-11-05T21:29:59.339Z,11.73
2022-11-05T21:32:27.975Z,12.23
2022-11-05T21:34:56.643Z,12.20
2022-11-05T21:37:25.259Z,12.20
2022-11-05T21:39:54.183Z,12.40
2022-11-05T21:42:22.852Z,12.47
2022-11-05T21:44:57.712Z,11.53
2022-11-05T21:47:29.037Z,12.13
2022-11-05T21:49:57.729Z,11.63
2022-11-05T21:52:43.835Z,11.30
2022-11-05T21:55:30.869Z,13.10
2022-11-05T21:58:18.515Z,12.00
2022-11-05T22:00:48.460Z,12.10
2022-11-05T22:03:17.071Z,13.10
2022-11-05T22:05:45.775Z,12.37
2022-11-05T22:08:14.789Z,12.30
2022-11-05T22:10:43.738Z,12.27
2022-11-05T22:13:12.382Z,12.40
2022-11-05T22:15:41.064Z,13.83
2022-11-05T22:18:11.359Z,13.60
2022-11-05T22:20:40.423Z,12.87
2022-11-05T22:23:11.413Z,13.20
2022-11-05T22:25:40.237Z,11.87
2022-11-05T22:28:08.977Z,12.73
2022-11-05T22:30:37.607Z,14.00
2022-11-05T22:33:06.263Z,13.00
2022-11-05T22:35:36.270Z,13.90
2022-11-05T22:38:04.847Z,12.67
2022-11-05T22:40:33.460Z,12.30
2022-11-05T22:43:02.083Z,12.50
2022-11-05T22:45:30.669Z,13.40
2022-11-05T22:48:02.544Z,11.63
2022-11-05T22:50:36.221Z,12.33
2022-11-05T22:53:04.904Z,13.17
2022-11-05T22:55:33.551Z,13.03
2022-11-05T22:58:02.138Z,12.30
2022-11-05T23:00:35.955Z,13.17
2022-11-05T23:03:04.710Z,15.07
2022-11-05T23:05:33.475Z,15.73
2022-11-05T23:08:21.357Z,14.60
2022-11-05T23:11:07.777Z,12.77
2022-11-05T23:13:36.380Z,12.60
2022-11-05T23:16:23.133Z,12.37
2022-11-05T23:19:09.184Z,13.70
2022-11-05T23:21:51.691Z,13.20
2022-11-05T23:24:21.623Z,12.83
2022-11-05T23:26:53.815Z,14.10
2022-11-05T23:29:24.018Z,13.90
2022-11-05T23:32:10.322Z,14.57
2022-11-05T23:34:39.283Z,13.87
2022-11-05T23:37:26.027Z,13.60
2022-11-05T23:39:56.049Z,14.50
2022-11-05T23:42:44.950Z,14.80
2022-11-05T23:45:30.914Z,14.10
2022-11-05T23:48:17.778Z,14.17
2022-11-05T23:50:48.868Z,13.60
2022-11-05T23:53:18.003Z,14.20
2022-11-05T23:55:48.405Z,14.67
2022-11-05T23:58:17.893Z,13.20
